Time;durP1;ratioP1;P1;durP2;ratioP2;P2;SDS_P1;SDS_P2;PMS_P1;PMS_P2;Temp;Humidity;BMP_temperature;BMP_pressure;BME280_temperature;BME280_humidity;BME280_pressure;Samples;Min_cycle;Max_cycle;Signal;HPM_P1;HPM_P2
2022/01/13 00:01:12;;;;;;;26.98;12.52;;;7.20;97.50;;;;;;5020869;28;20129;-67
2022/01/13 00:03:38;;;;;;;27.70;14.25;;;7.30;97.60;;;;;;5013024;28;20030;-67
2022/01/13 00:06:03;;;;;;;29.45;14.45;;;7.30;97.60;;;;;;5026459;28;20036;-67
2022/01/13 00:08:29;;;;;;;27.50;13.45;;;7.30;97.50;;;;;;5033022;28;20052;-67
2022/01/13 00:10:55;;;;;;;28.77;14.48;;;7.30;97.50;;;;;;5030616;28;20052;-66
2022/01/13 00:13:24;;;;;;;28.17;13.98;;;7.30;97.50;;;;;;5033108;28;20472;-67
2022/01/13 00:16:12;;;;;;;30.23;15.30;;;7.30;97.60;;;;;;5027269;28;20025;-67
2022/01/13 00:18:40;;;;;;;29.45;14.38;;;7.30;97.60;;;;;;5032492;28;20490;-67
2022/01/13 00:21:16;;;;;;;28.13;13.90;;;7.30;97.60;;;;;;5029375;28;20045;-66
2022/01/13 00:23:51;;;;;;;32.95;13.63;;;7.30;97.60;;;;;;5032926;28;20358;-67
2022/01/13 00:26:23;;;;;;;26.63;13.93;;;7.30;97.60;;;;;;5016204;28;20052;-67
2022/01/13 00:28:51;;;;;;;31.75;15.02;;;7.30;97.60;;;;;;5012794;28;20354;-67
2022/01/13 00:31:23;;;;;;;28.75;14.13;;;7.30;97.60;;;;;;5028178;28;20056;-67
2022/01/13 00:33:51;;;;;;;30.83;13.60;;;7.30;97.60;;;;;;5033027;28;20083;-67
2022/01/13 00:36:17;;;;;;;29.10;14.68;;;7.30;97.60;;;;;;5030574;28;20029;-67
2022/01/13 00:38:42;;;;;;;26.92;13.50;;;7.30;97.70;;;;;;5032589;28;20516;-67
2022/01/13 00:41:08;;;;;;;32.40;14.45;;;7.30;97.70;;;;;;5018297;28;20052;-67
2022/01/13 00:43:37;;;;;;;29.17;15.25;;;7.30;97.70;;;;;;5012276;28;20469;-68
2022/01/13 00:46:02;;;;;;;31.15;14.60;;;7.30;97.70;;;;;;5015173;28;20030;-67
2022/01/13 00:48:27;;;;;;;31.65;14.27;;;7.30;97.70;;;;;;5012826;28;20477;-66
2022/01/13 00:50:53;;;;;;;28.52;16.08;;;7.30;97.70;;;;;;5016551;28;20536;-67
2022/01/13 00:53:19;;;;;;;34.08;17.20;;;7.30;97.70;;;;;;5012792;28;20010;-68
2022/01/13 00:55:48;;;;;;;28.80;16.05;;;7.30;97.70;;;;;;5021303;28;20120;-67
2022/01/13 00:58:14;;;;;;;29.50;14.77;;;7.30;97.70;;;;;;5032081;28;20034;-67
2022/01/13 01:00:41;;;;;;;33.38;14.88;;;7.30;97.80;;;;;;5019619;28;20080;-68
2022/01/13 01:03:07;;;;;;;33.28;15.00;;;7.30;97.80;;;;;;5012384;28;20074;-67
2022/01/13 01:05:34;;;;;;;28.08;14.75;;;7.30;97.80;;;;;;5021686;28;20052;-67
2022/01/13 01:08:01;;;;;;;35.45;16.05;;;7.30;97.80;;;;;;5031871;28;20071;-66
2022/01/13 01:10:27;;;;;;;29.85;15.57;;;7.30;97.90;;;;;;5026166;28;20037;-67
2022/01/13 01:12:52;;;;;;;37.15;16.67;;;7.30;97.90;;;;;;5011990;28;20022;-67
2022/01/13 01:15:18;;;;;;;31.75;17.55;;;7.20;97.80;;;;;;5034581;28;20117;-68
2022/01/13 01:17:49;;;;;;;28.73;15.60;;;7.20;97.90;;;;;;5014550;28;20028;-68
2022/01/13 01:20:15;;;;;;;35.63;16.23;;;7.20;97.90;;;;;;5019773;28;20395;-68
2022/01/13 01:22:59;;;;;;;31.48;15.45;;;7.20;97.90;;;;;;5031768;28;20128;-68
2022/01/13 01:27:56;;;;;;;34.47;16.27;;;7.20;98.00;;;;;;5031387;28;20033;-68
2022/01/13 01:30:29;;;;;;;28.23;15.20;;;7.20;98.10;;;;;;5022205;28;20099;-68
2022/01/13 01:32:55;;;;;;;35.90;16.85;;;7.20;98.10;;;;;;5012109;28;20112;-68
2022/01/13 01:35:25;;;;;;;37.58;16.83;;;7.20;98.10;;;;;;5017790;28;20108;-67
2022/01/13 01:37:51;;;;;;;33.22;16.60;;;7.20;98.10;;;;;;5022691;28;20029;-68
2022/01/13 01:40:16;;;;;;;32.75;15.75;;;7.20;98.10;;;;;;5025282;28;20033;-68
2022/01/13 01:42:45;;;;;;;28.27;15.30;;;7.30;98.10;;;;;;5011688;28;20102;-69
2022/01/13 01:45:11;;;;;;;29.98;15.30;;;7.20;98.10;;;;;;5017363;28;20030;-69
2022/01/13 01:47:37;;;;;;;34.92;16.95;;;7.20;98.10;;;;;;5011504;28;20080;-68
2022/01/13 01:50:17;;;;;;;32.53;16.88;;;7.20;98.10;;;;;;5019621;28;20145;-69
2022/01/13 01:52:42;;;;;;;31.02;16.73;;;7.20;98.10;;;;;;5028446;28;20026;-68
2022/01/13 01:55:09;;;;;;;36.08;17.13;;;7.20;98.10;;;;;;5023764;28;20052;-69
2022/01/13 01:57:35;;;;;;;31.35;16.38;;;7.30;98.10;;;;;;5011413;28;20029;-68
2022/01/13 02:00:02;;;;;;;34.13;15.95;;;7.20;98.10;;;;;;5017737;28;20042;-68
2022/01/13 02:02:29;;;;;;;38.90;17.83;;;7.20;98.20;;;;;;5013006;28;20034;-68
2022/01/13 02:04:54;;;;;;;34.13;15.57;;;7.20;98.20;;;;;;5016782;28;20140;-69
2022/01/13 02:07:20;;;;;;;34.65;17.77;;;7.20;98.20;;;;;;5031318;28;20527;-68
2022/01/13 02:09:51;;;;;;;34.80;16.25;;;7.10;98.30;;;;;;5029180;28;20068;-68
2022/01/13 02:12:29;;;;;;;32.80;16.30;;;7.20;98.30;;;;;;5031091;28;20044;-68
2022/01/13 02:14:59;;;;;;;30.50;16.02;;;7.20;98.30;;;;;;5025198;28;20026;-68
2022/01/13 02:17:27;;;;;;;33.15;17.23;;;7.20;98.30;;;;;;5029763;28;20049;-68
2022/01/13 02:19:55;;;;;;;29.95;16.25;;;7.20;98.30;;;;;;5029136;28;20393;-68
2022/01/13 02:22:22;;;;;;;33.28;18.63;;;7.10;98.40;;;;;;5032990;28;20033;-68
2022/01/13 02:24:48;;;;;;;36.08;17.25;;;7.10;98.40;;;;;;5033313;28;20036;-67
2022/01/13 02:27:14;;;;;;;28.17;15.95;;;7.10;98.40;;;;;;5035251;28;20029;-67
2022/01/13 02:29:40;;;;;;;34.83;17.08;;;7.10;98.50;;;;;;5032262;28;20088;-66
2022/01/13 02:32:06;;;;;;;37.05;18.63;;;7.10;98.50;;;;;;5014933;28;20048;-67
2022/01/13 02:34:32;;;;;;;37.90;17.70;;;7.10;98.50;;;;;;5028285;28;20026;-67
2022/01/13 02:36:59;;;;;;;32.03;17.85;;;7.10;98.50;;;;;;5014742;28;20124;-69
2022/01/13 02:39:29;;;;;;;36.35;17.60;;;7.10;98.50;;;;;;5027814;28;20100;-68
2022/01/13 02:41:56;;;;;;;38.00;18.17;;;7.10;98.50;;;;;;5034654;28;20421;-68
2022/01/13 02:44:24;;;;;;;33.72;19.20;;;7.10;98.50;;;;;;5031815;28;20033;-68
2022/01/13 02:49:19;;;;;;;35.03;17.98;;;7.10;98.60;;;;;;5028736;28;20037;-67
2022/01/13 02:51:47;;;;;;;38.95;17.85;;;7.10;98.60;;;;;;5014646;28;20154;-68
2022/01/13 02:54:13;;;;;;;38.00;17.95;;;7.10;98.60;;;;;;5026754;28;20112;-68
2022/01/13 02:56:39;;;;;;;30.30;17.05;;;7.10;98.60;;;;;;5032379;28;20101;-68
2022/01/13 02:59:06;;;;;;;38.17;18.45;;;7.10;98.60;;;;;;5022369;28;20045;-67
2022/01/13 03:01:33;;;;;;;36.15;18.77;;;7.10;98.60;;;;;;5014464;28;20048;-68
2022/01/13 03:04:06;;;;;;;35.50;18.67;;;7.20;98.60;;;;;;5018470;28;20018;-68
2022/01/13 03:06:35;;;;;;;35.50;18.63;;;7.10;98.70;;;;;;5014536;28;20177;-67
2022/01/13 03:09:01;;;;;;;34.63;18.98;;;7.10;98.70;;;;;;5015362;28;20037;-67
2022/01/13 03:11:33;;;;;;;35.50;17.17;;;7.10;98.70;;;;;;5027136;28;20488;-67
2022/01/13 03:13:58;;;;;;;36.42;17.95;;;7.10;98.70;;;;;;5023962;28;20030;-67
2022/01/13 03:16:24;;;;;;;38.20;17.70;;;7.00;98.80;;;;;;5014240;28;20034;-67
2022/01/13 03:18:49;;;;;;;35.75;18.23;;;7.10;98.80;;;;;;5016165;28;20022;-67
2022/01/13 03:21:15;;;;;;;42.03;19.08;;;7.10;98.80;;;;;;5014110;28;20440;-67
2022/01/13 03:23:41;;;;;;;37.67;18.45;;;7.10;98.80;;;;;;5015406;28;20025;-67
2022/01/13 03:26:07;;;;;;;35.70;17.55;;;7.10;98.90;;;;;;5013845;28;20067;-67
2022/01/13 03:28:40;;;;;;;34.60;17.17;;;7.10;98.90;;;;;;5028982;28;20049;-67
2022/01/13 03:31:08;;;;;;;37.47;17.80;;;7.00;98.90;;;;;;5032863;28;20033;-68
2022/01/13 03:33:34;;;;;;;32.60;16.38;;;7.00;99.00;;;;;;5027548;28;20037;-68
2022/01/13 03:36:02;;;;;;;34.90;18.38;;;7.00;99.00;;;;;;5034022;28;20026;-68
2022/01/13 03:38:28;;;;;;;39.60;19.85;;;7.00;99.10;;;;;;5014084;28;20037;-66
2022/01/13 03:40:53;;;;;;;35.88;18.35;;;7.00;99.10;;;;;;5013696;28;20318;-68
2022/01/13 03:43:19;;;;;;;39.53;19.05;;;7.00;99.10;;;;;;5029909;28;20116;-67
2022/01/13 03:45:45;;;;;;;37.65;18.70;;;7.00;99.30;;;;;;5033677;28;20057;-67
2022/01/13 03:48:13;;;;;;;37.95;19.13;;;7.00;99.10;;;;;;5031427;28;20048;-67
2022/01/13 03:50:40;;;;;;;30.52;16.98;;;7.00;99.10;;;;;;5033259;28;20060;-67
2022/01/13 03:53:27;;;;;;;37.72;18.20;;;7.00;99.10;;;;;;5018631;28;20062;-67
2022/01/13 03:56:31;;;;;;;34.50;16.30;;;7.00;99.30;;;;;;5013313;28;20041;-68
2022/01/13 03:59:27;;;;;;;35.08;18.77;;;7.00;99.30;;;;;;5019286;28;20030;-67
2022/01/13 04:02:00;;;;;;;37.85;18.70;;;7.00;99.20;;;;;;5013692;28;20088;-68
2022/01/13 04:04:32;;;;;;;37.38;18.60;;;6.90;99.20;;;;;;5014339;28;20396;-68
2022/01/13 04:07:22;;;;;;;37.53;19.75;;;6.90;99.30;;;;;;5013809;28;20060;-68
2022/01/13 04:09:47;;;;;;;35.15;19.10;;;7.00;99.30;;;;;;5029503;28;20096;-67
2022/01/13 04:12:14;;;;;;;37.47;17.88;;;7.00;99.30;;;;;;5031623;28;20557;-68
2022/01/13 04:17:08;;;;;;;40.83;19.98;;;7.00;99.30;;;;;;5028775;28;20473;-67
2022/01/13 04:19:33;;;;;;;40.53;18.80;;;7.00;99.30;;;;;;5013531;28;20041;-67
2022/01/13 04:21:59;;;;;;;38.10;18.58;;;7.00;99.30;;;;;;5021905;28;20038;-68
2022/01/13 04:24:25;;;;;;;40.03;20.13;;;7.00;99.40;;;;;;5013331;28;20075;-68
2022/01/13 04:26:53;;;;;;;36.42;18.88;;;7.00;99.40;;;;;;5030729;28;20434;-68
2022/01/13 04:29:27;;;;;;;35.47;18.08;;;7.00;99.40;;;;;;5030423;28;20103;-69
2022/01/13 04:31:53;;;;;;;34.33;18.00;;;7.00;99.40;;;;;;5032821;28;20104;-69
2022/01/13 04:34:19;;;;;;;40.22;18.98;;;7.00;99.40;;;;;;5018366;28;20434;-67
2022/01/13 04:36:45;;;;;;;36.33;20.00;;;7.00;99.40;;;;;;5012780;28;20041;-66
2022/01/13 04:39:14;;;;;;;42.00;20.10;;;7.00;99.50;;;;;;5024360;28;20163;-67
2022/01/13 04:41:41;;;;;;;41.22;19.38;;;7.00;99.50;;;;;;5032229;28;20044;-68
2022/01/13 04:44:18;;;;;;;34.75;18.83;;;7.00;99.40;;;;;;5030809;28;20048;-68
2022/01/13 04:46:45;;;;;;;36.78;18.42;;;7.00;99.50;;;;;;5018038;28;20038;-68
2022/01/13 04:49:10;;;;;;;38.45;20.33;;;7.00;99.50;;;;;;5023351;28;20033;-68
2022/01/13 04:51:38;;;;;;;37.75;18.88;;;7.00;99.50;;;;;;5031709;28;20497;-67
2022/01/13 04:54:05;;;;;;;30.65;17.45;;;6.90;99.50;;;;;;5031037;28;20035;-68
2022/01/13 04:56:43;;;;;;;38.17;18.63;;;7.00;99.50;;;;;;5020935;28;20611;-67
2022/01/13 04:59:10;;;;;;;37.55;19.67;;;6.90;99.50;;;;;;5021406;28;20040;-67
2022/01/13 05:01:36;;;;;;;41.33;20.77;;;6.90;99.50;;;;;;5020000;28;20034;-67
2022/01/13 05:04:03;;;;;;;37.40;18.55;;;6.90;99.60;;;;;;5022006;28;20029;-68
2022/01/13 05:06:29;;;;;;;36.08;19.75;;;6.90;99.70;;;;;;5022146;28;20483;-68
2022/01/13 05:08:54;;;;;;;42.13;19.02;;;6.90;99.70;;;;;;5012052;28;20026;-68
2022/01/13 05:11:20;;;;;;;43.20;19.23;;;6.90;99.70;;;;;;5020326;28;20032;-69
2022/01/13 05:13:46;;;;;;;41.75;18.17;;;6.90;99.70;;;;;;5022730;28;20049;-68
2022/01/13 05:16:20;;;;;;;40.60;19.70;;;6.90;99.80;;;;;;5015564;28;20492;-69
2022/01/13 05:19:13;;;;;;;42.40;18.88;;;6.90;99.80;;;;;;5019149;28;20033;-69
2022/01/13 05:24:19;;;;;;;40.38;18.52;;;7.00;99.80;;;;;;5022834;28;20029;-69
2022/01/13 05:26:45;;;;;;;41.05;17.70;;;6.90;99.80;;;;;;5011699;28;20030;-69
2022/01/13 05:29:12;;;;;;;43.00;19.50;;;6.90;99.80;;;;;;5019849;28;20033;-69
2022/01/13 05:31:38;;;;;;;43.22;19.73;;;6.90;99.80;;;;;;5011652;28;20064;-70
2022/01/13 05:34:03;;;;;;;39.58;18.70;;;6.90;99.80;;;;;;5018572;28;20038;-69
2022/01/13 05:36:29;;;;;;;37.85;19.33;;;6.90;99.90;;;;;;5011380;28;20049;-69
2022/01/13 05:38:54;;;;;;;40.67;18.02;;;6.80;99.90;;;;;;5018868;28;20396;-69
2022/01/13 05:41:20;;;;;;;40.13;18.85;;;6.80;99.90;;;;;;5011570;28;20034;-68
2022/01/13 05:43:45;;;;;;;36.13;19.05;;;6.80;99.90;;;;;;5012393;28;20660;-69
2022/01/13 05:46:11;;;;;;;36.33;17.17;;;6.80;99.90;;;;;;5031299;28;20033;-67
2022/01/13 05:48:36;;;;;;;42.17;18.02;;;6.80;99.90;;;;;;5029860;28;20068;-69
2022/01/13 05:51:02;;;;;;;36.88;17.35;;;6.80;99.90;;;;;;5018336;28;20121;-67
2022/01/13 05:53:27;;;;;;;38.83;17.80;;;6.80;99.90;;;;;;5016926;28;20030;-67
2022/01/13 05:55:53;;;;;;;42.83;18.27;;;6.80;99.90;;;;;;5014758;28;20042;-67
2022/01/13 05:58:18;;;;;;;36.90;17.45;;;6.80;99.90;;;;;;5027170;28;20018;-67
2022/01/13 06:00:43;;;;;;;35.28;17.90;;;6.70;99.90;;;;;;5014215;28;20440;-68
2022/01/13 06:03:10;;;;;;;40.38;18.38;;;6.80;99.90;;;;;;5014591;28;20025;-67
2022/01/13 06:05:36;;;;;;;36.58;18.38;;;6.80;99.90;;;;;;5030884;28;20116;-68
2022/01/13 06:08:02;;;;;;;35.67;17.85;;;6.80;99.90;;;;;;5029400;28;20153;-68
2022/01/13 06:10:28;;;;;;;37.72;17.15;;;6.90;99.90;;;;;;5029670;28;20075;-69
2022/01/13 06:12:54;;;;;;;35.92;17.23;;;6.80;99.90;;;;;;5029286;28;20044;-69
2022/01/13 06:15:22;;;;;;;34.33;16.48;;;6.80;99.90;;;;;;5024428;28;20397;-68
2022/01/13 06:17:50;;;;;;;40.75;17.55;;;6.80;99.90;;;;;;5025113;28;20018;-68
2022/01/13 06:20:18;;;;;;;47.17;18.88;;;6.80;99.90;;;;;;5011533;28;20069;-68
2022/01/13 06:22:45;;;;;;;34.40;16.38;;;6.80;99.90;;;;;;5012486;28;20141;-68
2022/01/13 06:25:11;;;;;;;33.25;18.00;;;6.80;99.90;;;;;;5016964;28;20030;-69
2022/01/13 06:27:38;;;;;;;32.40;17.13;;;6.80;99.90;;;;;;5011010;28;20472;-68
2022/01/13 06:30:05;;;;;;;32.58;15.77;;;6.80;99.90;;;;;;5024096;28;20033;-68
2022/01/13 06:32:31;;;;;;;34.97;17.60;;;6.90;99.90;;;;;;5013153;28;20037;-69
2022/01/13 06:34:56;;;;;;;40.53;19.85;;;6.90;99.90;;;;;;5027424;28;20033;-69
2022/01/13 06:37:22;;;;;;;34.20;16.88;;;6.90;99.90;;;;;;5030979;28;20349;-67
2022/01/13 06:39:47;;;;;;;38.03;18.17;;;6.80;99.90;;;;;;5029472;28;20060;-69
2022/01/13 06:42:13;;;;;;;37.67;17.88;;;6.80;99.90;;;;;;5030990;28;20029;-67
2022/01/13 06:44:39;;;;;;;36.65;17.38;;;6.80;99.90;;;;;;5028557;28;20033;-67
2022/01/13 06:47:06;;;;;;;38.60;17.38;;;6.80;99.90;;;;;;5030774;28;20022;-67
2022/01/13 06:49:32;;;;;;;35.38;16.65;;;6.80;99.90;;;;;;5020331;28;20507;-66
2022/01/13 06:51:58;;;;;;;41.88;17.48;;;6.80;99.90;;;;;;5028772;28;20079;-67
2022/01/13 06:54:24;;;;;;;32.72;18.13;;;6.80;99.90;;;;;;5021007;28;20037;-66
2022/01/13 06:56:51;;;;;;;38.22;18.73;;;6.80;99.90;;;;;;5020555;28;20037;-67
2022/01/13 06:59:17;;;;;;;40.58;17.50;;;6.80;99.90;;;;;;5013769;28;20067;-66
2022/01/13 07:01:43;;;;;;;41.00;18.30;;;6.90;99.90;;;;;;5023056;28;20126;-66
2022/01/13 07:04:10;;;;;;;39.33;17.85;;;6.90;99.90;;;;;;5019992;28;20033;-65
2022/01/13 07:06:36;;;;;;;35.88;15.85;;;6.80;99.90;;;;;;5010113;28;20029;-66
2022/01/13 07:09:06;;;;;;;35.85;17.75;;;6.80;99.90;;;;;;5027711;28;20068;-66
2022/01/13 07:11:31;;;;;;;37.05;17.58;;;6.80;99.90;;;;;;5030926;28;20030;-66
2022/01/13 07:13:56;;;;;;;40.28;17.73;;;6.80;99.90;;;;;;5013578;28;20040;-66
2022/01/13 07:16:22;;;;;;;38.88;19.45;;;6.80;99.90;;;;;;5026293;28;20491;-66
2022/01/13 07:18:47;;;;;;;36.53;18.08;;;6.80;99.90;;;;;;5022971;28;20480;-66
2022/01/13 07:21:16;;;;;;;40.40;18.92;;;6.80;99.90;;;;;;5025905;28;20037;-66
2022/01/13 07:23:42;;;;;;;35.75;18.92;;;6.80;99.90;;;;;;5018723;28;20025;-67
2022/01/13 07:26:07;;;;;;;40.00;20.30;;;6.80;99.90;;;;;;5016366;28;20040;-66
2022/01/13 07:28:32;;;;;;;34.95;16.85;;;6.90;99.90;;;;;;5013415;28;20512;-67
2022/01/13 07:30:58;;;;;;;36.83;18.38;;;6.80;99.90;;;;;;5017677;28;20034;-67
2022/01/13 07:33:24;;;;;;;40.53;18.92;;;6.80;99.90;;;;;;5024956;28;20475;-67
2022/01/13 07:35:50;;;;;;;40.25;18.73;;;6.80;99.90;;;;;;5022194;28;20690;-66
2022/01/13 07:38:16;;;;;;;51.83;18.75;;;6.80;99.90;;;;;;5016080;28;20029;-66
2022/01/13 07:40:42;;;;;;;40.03;18.90;;;6.80;99.90;;;;;;5021936;28;20029;-66
2022/01/13 07:43:08;;;;;;;40.10;19.65;;;6.80;99.90;;;;;;5022783;28;20029;-66
2022/01/13 07:45:33;;;;;;;35.55;19.65;;;6.80;99.90;;;;;;5017257;28;20034;-66
2022/01/13 07:47:59;;;;;;;39.83;18.00;;;6.80;99.90;;;;;;5029730;28;20033;-66
2022/01/13 07:50:24;;;;;;;36.40;16.73;;;6.80;99.90;;;;;;5020015;28;20030;-66
2022/01/13 07:52:50;;;;;;;36.95;17.98;;;6.80;99.90;;;;;;5015495;28;20112;-67
2022/01/13 07:55:16;;;;;;;40.17;18.17;;;6.80;99.90;;;;;;5021532;28;20030;-67
2022/01/13 07:57:42;;;;;;;33.22;16.30;;;6.80;99.90;;;;;;5026539;28;20026;-66
2022/01/13 08:00:10;;;;;;;38.67;17.63;;;6.90;99.90;;;;;;5020452;28;20046;-66
2022/01/13 08:02:35;;;;;;;38.65;18.38;;;6.90;99.90;;;;;;5013422;28;20037;-67
2022/01/13 08:05:02;;;;;;;35.15;17.27;;;6.90;99.90;;;;;;5019427;28;20037;-67
2022/01/13 08:07:28;;;;;;;36.83;16.27;;;6.90;99.90;;;;;;5020103;28;20025;-66
2022/01/13 08:09:53;;;;;;;44.50;19.20;;;6.90;99.90;;;;;;5017922;28;20025;-66
2022/01/13 08:12:19;;;;;;;33.95;18.30;;;6.90;99.90;;;;;;5024812;28;20025;-66
2022/01/13 08:14:44;;;;;;;40.17;17.73;;;6.90;99.90;;;;;;5023893;28;20392;-66
2022/01/13 08:17:19;;;;;;;36.47;18.00;;;6.90;99.90;;;;;;5017949;28;20029;-66
2022/01/13 08:19:48;;;;;;;39.47;17.35;;;6.90;99.90;;;;;;5030780;28;20029;-67
2022/01/13 08:22:15;;;;;;;37.72;17.13;;;6.90;99.90;;;;;;5029875;28;20060;-67
2022/01/13 08:24:41;;;;;;;38.80;19.17;;;6.90;99.90;;;;;;5014902;28;20500;-66
2022/01/13 08:27:07;;;;;;;38.03;16.88;;;6.90;99.90;;;;;;5030088;28;20025;-66
2022/01/13 08:29:33;;;;;;;34.03;16.55;;;6.90;99.90;;;;;;5027883;28;20025;-66
2022/01/13 08:31:58;;;;;;;35.13;17.00;;;6.90;99.90;;;;;;5014245;28;20018;-66
2022/01/13 08:34:24;;;;;;;39.55;17.70;;;6.90;99.90;;;;;;5026144;28;20029;-67
2022/01/13 08:36:50;;;;;;;47.67;21.42;;;6.90;99.90;;;;;;5030441;28;20041;-67
2022/01/13 08:39:16;;;;;;;43.25;18.77;;;6.90;99.90;;;;;;5029069;28;20029;-67
2022/01/13 08:41:42;;;;;;;42.20;18.77;;;6.80;99.90;;;;;;5016642;28;20519;-67
2022/01/13 08:44:09;;;;;;;40.60;19.08;;;6.80;99.90;;;;;;5024493;28;20068;-67
2022/01/13 08:46:35;;;;;;;41.20;18.60;;;6.90;99.90;;;;;;5017900;28;20025;-67
2022/01/13 08:49:02;;;;;;;35.95;16.45;;;6.90;99.90;;;;;;5023351;28;20097;-67
2022/01/13 08:51:28;;;;;;;40.05;18.27;;;6.90;99.90;;;;;;5031500;28;20033;-66
2022/01/13 08:53:53;;;;;;;35.65;17.92;;;6.90;99.90;;;;;;5028390;28;20040;-67
2022/01/13 08:56:19;;;;;;;42.65;17.85;;;7.00;99.90;;;;;;5019913;28;20424;-67
2022/01/13 08:58:46;;;;;;;39.78;18.80;;;7.00;99.90;;;;;;5020403;28;20068;-67
2022/01/13 09:01:12;;;;;;;38.72;17.17;;;6.90;99.90;;;;;;5028925;28;20116;-68
2022/01/13 09:03:38;;;;;;;39.67;17.55;;;6.90;99.90;;;;;;5024428;28;20037;-67
2022/01/13 09:06:04;;;;;;;41.05;17.83;;;7.00;99.90;;;;;;5020781;28;20026;-67
2022/01/13 09:08:30;;;;;;;43.05;17.88;;;6.90;99.90;;;;;;5018537;28;20025;-67
2022/01/13 09:10:56;;;;;;;43.90;18.08;;;7.00;99.90;;;;;;5024384;28;20080;-67
2022/01/13 09:13:23;;;;;;;34.60;15.82;;;7.00;99.90;;;;;;5019415;28;20619;-67
2022/01/13 09:15:57;;;;;;;40.28;20.17;;;7.00;99.90;;;;;;5020592;28;20041;-67
2022/01/13 09:18:58;;;;;;;37.92;18.23;;;7.00;99.90;;;;;;5016402;28;20033;-67
2022/01/13 09:21:22;;;;;;;43.00;18.30;;;7.00;99.90;;;;;;5014968;28;20536;-68
2022/01/13 09:23:47;;;;;;;33.15;16.77;;;7.00;99.90;;;;;;5011949;28;20029;-67
2022/01/13 09:26:13;;;;;;;40.55;17.30;;;7.00;99.90;;;;;;5020029;28;20476;-67
2022/01/13 09:28:39;;;;;;;38.17;16.25;;;7.00;99.90;;;;;;5027287;28;20092;-67
2022/01/13 09:31:06;;;;;;;37.33;16.63;;;7.00;99.90;;;;;;5021320;28;20026;-67
2022/01/13 09:33:32;;;;;;;40.97;17.42;;;7.00;99.90;;;;;;5027420;28;20049;-67
2022/01/13 09:35:58;;;;;;;36.28;16.45;;;7.00;99.90;;;;;;5011463;28;20385;-67
2022/01/13 09:38:24;;;;;;;43.20;20.08;;;7.00;99.90;;;;;;5012654;28;20487;-67
2022/01/13 09:40:52;;;;;;;38.90;18.38;;;7.00;99.90;;;;;;5015784;28;20113;-67
2022/01/13 09:43:21;;;;;;;38.92;18.10;;;7.10;99.90;;;;;;5023818;28;20025;-67
2022/01/13 09:45:47;;;;;;;35.85;16.83;;;7.00;99.90;;;;;;5016463;28;20087;-67
2022/01/13 09:48:13;;;;;;;38.85;17.98;;;7.00;99.90;;;;;;5026123;28;20105;-67
2022/01/13 09:50:39;;;;;;;40.42;19.48;;;7.00;99.90;;;;;;5011557;28;20029;-67
2022/01/13 09:53:07;;;;;;;33.35;16.17;;;7.10;99.90;;;;;;5011666;28;20405;-68
2022/01/13 09:55:33;;;;;;;40.05;17.23;;;7.10;99.90;;;;;;5018270;28;20030;-68
2022/01/13 09:58:03;;;;;;;39.33;17.85;;;7.10;99.90;;;;;;5026225;28;20187;-67
2022/01/13 10:00:29;;;;;;;42.33;19.02;;;7.10;99.90;;;;;;5011682;28;20053;-67
2022/01/13 10:02:55;;;;;;;37.40;17.20;;;7.10;99.90;;;;;;5011671;28;20025;-67
2022/01/13 10:05:22;;;;;;;42.83;18.70;;;7.10;99.90;;;;;;5019372;28;20021;-67
2022/01/13 10:07:51;;;;;;;39.85;17.55;;;7.20;99.90;;;;;;5029722;28;20107;-67
2022/01/13 10:10:20;;;;;;;37.85;18.88;;;7.10;99.90;;;;;;5012504;28;20363;-66
2022/01/13 10:12:48;;;;;;;34.88;16.38;;;7.10;99.90;;;;;;5017277;28;20034;-67
2022/01/13 10:18:02;;;;;;;39.08;17.50;;;7.10;99.90;;;;;;5013812;28;20034;-66
2022/01/13 10:20:28;;;;;;;51.25;19.98;;;7.10;99.90;;;;;;5027326;28;20076;-67
2022/01/13 10:23:17;;;;;;;36.58;16.85;;;7.10;99.90;;;;;;5012390;28;20033;-67
2022/01/13 10:25:47;;;;;;;38.17;18.38;;;7.10;99.90;;;;;;5027044;28;20028;-67
2022/01/13 10:28:19;;;;;;;39.15;17.45;;;7.00;99.90;;;;;;5034974;28;20026;-66
2022/01/13 10:30:49;;;;;;;39.90;18.92;;;7.00;99.90;;;;;;5029802;28;20041;-66
2022/01/13 10:33:29;;;;;;;37.97;17.40;;;7.00;99.90;;;;;;5042962;28;20108;-66
2022/01/13 10:36:08;;;;;;;45.78;18.27;;;7.00;99.90;;;;;;5022880;28;20026;-66
2022/01/13 10:38:55;;;;;;;42.13;17.00;;;7.00;99.90;;;;;;5017837;28;20048;-67
2022/01/13 10:41:38;;;;;;;39.35;18.95;;;7.00;99.90;;;;;;5027912;28;20042;-67
2022/01/13 10:44:22;;;;;;;41.03;17.15;;;7.00;99.90;;;;;;5031360;28;20033;-66
2022/01/13 10:46:58;;;;;;;37.97;16.60;;;7.00;99.90;;;;;;5033574;28;20033;-67
2022/01/13 10:49:42;;;;;;;36.20;15.95;;;7.10;99.90;;;;;;5024262;28;20039;-67
2022/01/13 10:52:26;;;;;;;37.17;15.90;;;7.10;99.90;;;;;;5031566;28;20025;-67
2022/01/13 10:55:12;;;;;;;33.15;15.73;;;7.10;99.90;;;;;;5022893;28;20052;-67
2022/01/13 10:57:43;;;;;;;34.40;15.63;;;7.10;99.90;;;;;;5033619;28;20041;-67
2022/01/13 11:00:22;;;;;;;35.90;16.42;;;7.10;99.90;;;;;;5029212;28;20049;-66
2022/01/13 11:03:18;;;;;;;38.78;17.25;;;7.10;99.90;;;;;;5030812;28;20029;-66
2022/01/13 11:05:49;;;;;;;31.40;14.98;;;7.10;99.90;;;;;;5026907;28;20080;-66
2022/01/13 11:08:22;;;;;;;31.17;14.98;;;7.10;99.90;;;;;;5018042;28;20048;-66
2022/01/13 11:10:50;;;;;;;33.53;16.10;;;7.10;99.90;;;;;;5014709;28;20593;-67
2022/01/13 11:13:17;;;;;;;38.25;16.75;;;7.00;99.90;;;;;;5013789;28;20508;-66
2022/01/13 11:15:46;;;;;;;35.13;16.30;;;7.00;99.90;;;;;;5014608;28;20033;-67
2022/01/13 11:18:11;;;;;;;38.10;16.25;;;7.00;99.90;;;;;;5017196;28;20030;-67
2022/01/13 11:20:39;;;;;;;30.63;15.63;;;7.10;99.90;;;;;;5028506;28;20044;-66
2022/01/13 11:23:04;;;;;;;32.72;15.48;;;7.00;99.90;;;;;;5030618;28;20022;-66
2022/01/13 11:25:30;;;;;;;34.67;14.98;;;7.00;99.90;;;;;;5030684;28;20035;-66
2022/01/13 11:27:56;;;;;;;32.92;15.48;;;7.00;99.90;;;;;;5013503;28;20025;-66
2022/01/13 11:30:25;;;;;;;36.50;15.27;;;7.00;99.90;;;;;;5015282;28;20032;-66
2022/01/13 11:32:50;;;;;;;37.13;14.98;;;7.00;99.90;;;;;;5018808;28;20037;-65
2022/01/13 11:35:30;;;;;;;32.53;17.05;;;7.00;99.90;;;;;;5025268;28;20100;-65
2022/01/13 11:37:57;;;;;;;35.35;16.20;;;7.00;99.90;;;;;;5030307;28;20035;-65
2022/01/13 11:40:28;;;;;;;34.05;16.55;;;7.10;99.90;;;;;;5020604;28;20428;-66
2022/01/13 11:42:55;;;;;;;28.27;13.32;;;7.00;99.90;;;;;;5021680;28;20033;-66
2022/01/13 11:45:22;;;;;;;33.05;14.52;;;7.00;99.90;;;;;;5024739;28;20104;-66
2022/01/13 11:48:06;;;;;;;34.95;14.43;;;7.00;99.90;;;;;;5027643;28;20052;-66
2022/01/13 11:50:42;;;;;;;29.88;14.38;;;7.00;99.90;;;;;;5029765;28;20104;-66
2022/01/13 11:53:20;;;;;;;29.30;12.90;;;7.10;99.90;;;;;;5033183;28;20026;-66
2022/01/13 11:55:52;;;;;;;28.38;14.05;;;7.10;99.90;;;;;;5014885;28;20404;-65
2022/01/13 11:58:22;;;;;;;30.63;13.77;;;7.10;99.90;;;;;;5029131;28;20095;-65
2022/01/13 12:00:51;;;;;;;29.63;14.38;;;7.00;99.90;;;;;;5032494;28;20512;-67
2022/01/13 12:03:34;;;;;;;74.97;21.70;;;7.10;99.90;;;;;;5014669;28;20480;-64
2022/01/13 12:06:01;;;;;;;45.22;17.20;;;7.00;99.90;;;;;;5032902;28;20507;-65
2022/01/13 12:08:35;;;;;;;474.65;85.32;;;7.00;99.90;;;;;;5030598;28;20022;-65
2022/01/13 12:11:00;;;;;;;43.47;16.58;;;7.00;99.90;;;;;;5024252;28;20038;-66
2022/01/13 12:13:29;;;;;;;44.05;15.70;;;7.10;99.90;;;;;;5016054;28;20029;-65
2022/01/13 12:15:55;;;;;;;56.97;16.55;;;7.00;99.90;;;;;;5039591;28;20021;-65
2022/01/13 12:18:43;;;;;;;35.97;13.57;;;7.10;99.90;;;;;;5021434;28;20492;-64
2022/01/13 12:21:29;;;;;;;60.55;18.67;;;7.10;99.90;;;;;;5029483;28;20183;-64
2022/01/13 12:23:56;;;;;;;47.00;14.55;;;7.20;99.90;;;;;;5016022;28;20029;-65
2022/01/13 12:26:33;;;;;;;42.28;17.48;;;7.20;99.90;;;;;;5026323;28;20034;-65
2022/01/13 12:29:14;;;;;;;42.05;15.20;;;7.20;99.90;;;;;;5035322;28;20483;-64
2022/01/13 12:31:58;;;;;;;41.63;15.40;;;7.20;99.90;;;;;;5053178;28;20495;-66
2022/01/13 12:34:33;;;;;;;34.00;12.77;;;7.20;99.90;;;;;;5044887;28;20399;-65
2022/01/13 12:37:22;;;;;;;32.65;14.40;;;7.30;99.90;;;;;;5035172;28;20532;-65
2022/01/13 12:39:58;;;;;;;34.53;14.02;;;7.30;99.90;;;;;;5018707;28;20060;-64
2022/01/13 12:42:35;;;;;;;30.88;12.82;;;7.30;99.90;;;;;;5012631;28;20046;-65
2022/01/13 12:47:47;;;;;;;33.40;14.43;;;7.30;99.90;;;;;;5024211;28;20120;-65
2022/01/13 12:50:29;;;;;;;33.22;13.90;;;7.40;99.90;;;;;;5028869;28;20537;-65
2022/01/13 12:53:06;;;;;;;30.38;13.10;;;7.40;99.90;;;;;;5028868;28;20522;-66
2022/01/13 12:55:32;;;;;;;28.67;12.70;;;7.40;99.90;;;;;;5030689;28;20504;-65
2022/01/13 12:57:58;;;;;;;30.83;13.27;;;7.40;99.90;;;;;;5026604;28;20030;-66
2022/01/13 13:00:25;;;;;;;30.45;13.15;;;7.40;99.90;;;;;;5013338;28;20068;-66